Time;durP1;ratioP1;P1;durP2;ratioP2;P2;SDS_P1;SDS_P2;PMS_P1;PMS_P2;Temp;Humidity;BMP_temperature;BMP_pressure;BME280_temperature;BME280_humidity;BME280_pressure;Samples;Min_cycle;Max_cycle;Signal;HPM_P1;HPM_P2
2022/04/29 00:10:48;;;;;;;15.6;20.4;;;;;;;-133;78.7;79460;;;;
2022/04/29 00:20:49;;;;;;;17.1;21;;;;;;;-133;79.5;79460;;;;
2022/04/29 00:31:49;;;;;;;17.1;21;;;;;;;-133;79.8;79490;;;;
2022/04/29 00:42:48;;;;;;;18.7;21.4;;;;;;;-133;80.4;79510;;;;
2022/04/29 00:53:48;;;;;;;18.7;21.4;;;;;;;-133;79.7;79510;;;;
2022/04/29 01:03:48;;;;;;;18.7;21.4;;;;;;;-133;80.2;79540;;;;
2022/04/29 01:14:48;;;;;;;19.1;24;;;;;;;-133;80.7;79550;;;;
2022/04/29 01:24:50;;;;;;;19.1;24;;;;;;;-133;81.2;79570;;;;
2022/04/29 01:34:48;;;;;;;19.1;24;;;;;;;-133;82.1;79600;;;;
2022/04/29 01:45:48;;;;;;;20.2;24.6;;;;;;;-133;83.8;79590;;;;
2022/04/29 01:55:48;;;;;;;20.2;24.6;;;;;;;-133;83.3;79600;;;;
2022/04/29 02:06:48;;;;;;;20.2;24.6;;;;;;;-133;83.6;79640;;;;
2022/04/29 02:17:48;;;;;;;19.1;22;;;;;;;-133;84.6;79660;;;;
2022/04/29 02:28:48;;;;;;;19.1;22;;;;;;;-133;85;79690;;;;
2022/04/29 02:39:48;;;;;;;19.1;22;;;;;;;-133;85.3;79710;;;;
2022/04/29 02:49:48;;;;;;;20.2;25.7;;;;;;;-133;85.7;79750;;;;
2022/04/29 02:59:48;;;;;;;20.2;25.7;;;;;;;-133;87;79770;;;;
2022/04/29 03:10:48;;;;;;;20.2;25.7;;;;;;;-133;89.5;79780;;;;
2022/04/29 03:20:48;;;;;;;22;26.1;;;;;;;-133;91.1;79740;;;;
2022/04/29 03:31:49;;;;;;;22;26.1;;;;;;;-133;90.8;79730;;;;
2022/04/29 03:42:48;;;;;;;31.2;36;;;;;;;-133;90.9;79700;;;;
2022/04/29 03:52:48;;;;;;;31.2;36;;;;;;;-133;89.9;79680;;;;
2022/04/29 04:02:49;;;;;;;31.2;36;;;;;;;-133;89.2;79670;;;;
2022/04/29 04:13:48;;;;;;;29.7;33.3;;;;;;;-133;88.4;79660;;;;
2022/04/29 04:24:48;;;;;;;29.7;33.3;;;;;;;-133;87.7;79630;;;;
2022/04/29 04:34:49;;;;;;;29.7;33.3;;;;;;;-133;86.1;79620;;;;
2022/04/29 04:45:48;;;;;;;22.6;25.3;;;;;;;-133;84.7;79570;;;;
2022/04/29 04:55:48;;;;;;;22.6;25.3;;;;;;;-133;82.8;79510;;;;
2022/04/29 05:05:48;;;;;;;22.6;25.3;;;;;;;-133;82.2;79470;;;;
2022/04/29 05:16:48;;;;;;;21.8;24.8;;;;;;;-133;79.9;79410;;;;
2022/04/29 05:27:48;;;;;;;21.8;24.8;;;;;;;-133;78.1;79370;;;;
2022/04/29 05:37:48;;;;;;;21.8;24.8;;;;;;;-133;77.8;79330;;;;
2022/04/29 05:47:48;;;;;;;23.4;26.3;;;;;;;-133;76.9;79350;;;;
2022/04/29 05:58:48;;;;;;;23.4;26.3;;;;;;;-133;76.6;79360;;;;
2022/04/29 06:09:48;;;;;;;23.4;26.3;;;;;;;-133;75.9;79330;;;;
2022/04/29 06:19:49;;;;;;;24.8;29.5;;;;;;;-133;76.5;79270;;;;
2022/04/29 06:29:48;;;;;;;24.8;29.5;;;;;;;-133;75.6;79190;;;;
2022/04/29 06:40:48;;;;;;;24.8;29.5;;;;;;;-133;71.7;79130;;;;
2022/04/29 06:50:48;;;;;;;25.8;37.8;;;;;;;-133;70;79080;;;;
2022/04/29 07:00:48;;;;;;;25.8;37.8;;;;;;;-133;66.9;79060;;;;
2022/04/29 07:11:48;;;;;;;23.3;30.4;;;;;;;-133;66.7;79020;;;;
2022/04/29 07:22:49;;;;;;;23.3;30.4;;;;;;;-133;65.2;78970;;;;
2022/04/29 07:32:48;;;;;;;23.3;30.4;;;;;;;-133;63.8;78930;;;;
2022/04/29 07:43:49;;;;;;;23.3;29.3;;;;;;;-133;63.7;78850;;;;
2022/04/29 07:53:48;;;;;;;23.3;29.3;;;;;;;-133;62.1;78820;;;;
2022/04/29 08:04:49;;;;;;;23.3;29.3;;;;;;;-133;60.7;78770;;;;
2022/04/29 08:15:49;;;;;;;21.5;25;;;;;;;-133;59.5;78710;;;;
2022/04/29 08:25:48;;;;;;;21.5;25;;;;;;;-133;60;78640;;;;
2022/04/29 08:35:48;;;;;;;21.5;25;;;;;;;-133;56.7;78590;;;;
2022/04/29 08:46:48;;;;;;;22.2;27.3;;;;;;;-133;56.1;78540;;;;
2022/04/29 08:58:53;;;;;;;22.2;27.3;;;;;;;-133;46.4;78450;;;;
2022/04/29 09:08:48;;;;;;;22.2;27.3;;;;;;;-133;42.1;78430;;;;
2022/04/29 09:18:49;;;;;;;10;15.1;;;;;;;-133;45.3;78530;;;;
2022/04/29 09:29:49;;;;;;;10;15.1;;;;;;;-133;42.2;78580;;;;
2022/04/29 09:40:48;;;;;;;5.2;11.6;;;;;;;-133;42.3;78550;;;;
2022/04/29 09:51:49;;;;;;;5.2;11.6;;;;;;;-133;40.4;78500;;;;
2022/04/29 10:01:48;;;;;;;5.2;11.6;;;;;;;-133;38.9;78450;;;;
2022/04/29 10:11:48;;;;;;;4.3;9.5;;;;;;;-133;38.5;78350;;;;
2022/04/29 10:22:50;;;;;;;4.3;9.5;;;;;;;-133;39.9;78350;;;;
2022/04/29 10:32:48;;;;;;;4.3;9.5;;;;;;;-133;38.2;78360;;;;
2022/04/29 10:43:49;;;;;;;5.2;8.6;;;;;;;-133;38.7;78360;;;;
2022/04/29 10:53:48;;;;;;;5.2;8.6;;;;;;;-133;39.7;78330;;;;
2022/04/29 11:04:48;;;;;;;5.2;8.6;;;;;;;-133;37.8;78250;;;;
2022/04/29 11:15:48;;;;;;;5.9;9.9;;;;;;;-133;39.4;78160;;;;
2022/04/29 11:25:49;;;;;;;5.9;9.9;;;;;;;-133;37.7;78140;;;;
2022/04/29 11:35:48;;;;;;;5.9;9.9;;;;;;;-133;37;78210;;;;
2022/04/29 11:45:48;;;;;;;5.2;8.5;;;;;;;-133;36.6;78190;;;;
2022/04/29 11:56:48;;;;;;;5.2;8.5;;;;;;;-133;35.8;78100;;;;
2022/04/29 12:07:49;;;;;;;5.2;8.5;;;;;;;-133;33.2;78130;;;;
2022/04/29 12:18:49;;;;;;;5;9.2;;;;;;;-133;35.6;78190;;;;
2022/04/29 12:34:48;;;;;;;5;9.2;;;;;;;-133;36.3;78210;;;;
2022/04/29 12:40:49;;;;;;;4.9;8.2;;;;;;;-133;35.3;78150;;;;
2022/04/29 12:51:49;;;;;;;4.9;8.2;;;;;;;-133;33.1;78040;;;;
2022/04/29 13:01:49;;;;;;;4.9;8.2;;;;;;;-133;33.4;78090;;;;
2022/04/29 13:12:49;;;;;;;4.4;9.4;;;;;;;-133;33.6;78150;;;;
2022/04/29 13:22:49;;;;;;;4.4;9.4;;;;;;;-133;35.3;78130;;;;
2022/04/29 13:33:48;;;;;;;4.4;9.4;;;;;;;-133;35.1;78050;;;;
2022/04/29 13:43:50;;;;;;;5.4;10.1;;;;;;;-133;34.3;78060;;;;
2022/04/29 13:54:49;;;;;;;5.4;10.1;;;;;;;-133;34.6;78000;;;;
2022/04/29 14:04:49;;;;;;;5.4;10.1;;;;;;;-133;32.7;77960;;;;
2022/04/29 14:15:49;;;;;;;5.1;8;;;;;;;-133;31.7;77900;;;;
2022/04/29 14:25:49;;;;;;;5.1;8;;;;;;;-133;32.1;77840;;;;
2022/04/29 14:35:49;;;;;;;5.1;8;;;;;;;-133;31.7;77950;;;;
2022/04/29 14:46:49;;;;;;;4.1;8.5;;;;;;;-133;33.2;78040;;;;
2022/04/29 14:56:50;;;;;;;4.1;8.5;;;;;;;-133;35.4;78110;;;;
2022/04/29 15:07:49;;;;;;;4.1;8.5;;;;;;;-133;34.7;78110;;;;
2022/04/29 15:17:49;;;;;;;4.1;7.3;;;;;;;-133;36;78120;;;;
2022/04/29 15:28:49;;;;;;;4.1;7.3;;;;;;;-133;35.9;78140;;;;
2022/04/29 15:39:49;;;;;;;4.1;7.3;;;;;;;-133;34.6;78130;;;;
2022/04/29 15:49:50;;;;;;;4.4;7.5;;;;;;;-133;33.1;77940;;;;
2022/04/29 15:59:49;;;;;;;4.4;7.5;;;;;;;-133;33.1;78020;;;;
2022/04/29 16:10:49;;;;;;;4.9;9.2;;;;;;;-133;36.4;78080;;;;
2022/04/29 16:21:49;;;;;;;4.9;9.2;;;;;;;-133;35.4;78110;;;;
2022/04/29 16:32:50;;;;;;;4.9;9.2;;;;;;;-133;36.1;78140;;;;
2022/04/29 16:42:49;;;;;;;12;15.9;;;;;;;-133;37.5;78190;;;;
2022/04/29 16:52:49;;;;;;;12;15.9;;;;;;;-133;39.5;78240;;;;
2022/04/29 17:03:49;;;;;;;12;15.9;;;;;;;-133;43.3;78290;;;;
2022/04/29 17:13:49;;;;;;;4.8;10.8;;;;;;;-133;45.8;78330;;;;
2022/04/29 17:24:49;;;;;;;4.8;10.8;;;;;;;-133;46;78320;;;;
2022/04/29 17:34:49;;;;;;;4.8;10.8;;;;;;;-133;47.8;78390;;;;
2022/04/29 17:44:49;;;;;;;6.2;10.8;;;;;;;-133;48.5;78470;;;;
2022/04/29 17:54:49;;;;;;;6.2;10.8;;;;;;;-133;50.5;78550;;;;
2022/04/29 18:04:49;;;;;;;6.2;10.8;;;;;;;-133;51.9;78620;;;;
2022/04/29 18:15:49;;;;;;;6.2;11.6;;;;;;;-133;54.7;78710;;;;
2022/04/29 18:26:49;;;;;;;6.2;11.6;;;;;;;-133;55.8;78770;;;;
2022/04/29 18:37:49;;;;;;;6.2;11.6;;;;;;;-133;59;78830;;;;
2022/04/29 18:47:49;;;;;;;22.9;35.5;;;;;;;-133;56.9;78840;;;;
2022/04/29 18:58:49;;;;;;;22.9;35.5;;;;;;;-133;58.9;78860;;;;
2022/04/29 19:08:49;;;;;;;22.9;35.5;;;;;;;-133;60.9;78890;;;;
2022/04/29 19:19:49;;;;;;;12.4;17.8;;;;;;;-133;62;78930;;;;
2022/04/29 19:30:49;;;;;;;12.4;17.8;;;;;;;-133;62.1;78960;;;;
2022/04/29 19:41:49;;;;;;;12.5;15.9;;;;;;;-133;62.4;78970;;;;
2022/04/29 19:51:49;;;;;;;12.5;15.9;;;;;;;-133;63.8;78980;;;;
2022/04/29 20:11:49;;;;;;;18;23.9;;;;;;;-133;65.5;79030;;;;
2022/04/29 20:21:53;;;;;;;18;23.9;;;;;;;-133;65.7;79080;;;;
2022/04/29 20:32:49;;;;;;;18;23.9;;;;;;;-133;65.8;79120;;;;
2022/04/29 20:44:04;;;;;;;12.5;17.8;;;;;;;-133;64.8;79150;;;;
2022/04/29 20:54:49;;;;;;;12.5;17.8;;;;;;;-133;66.9;79200;;;;
2022/04/29 21:04:50;;;;;;;12.5;17.8;;;;;;;-133;67.4;79240;;;;
2022/04/29 21:14:50;;;;;;;11.7;17;;;;;;;-133;68;79260;;;;
2022/04/29 21:25:49;;;;;;;11.7;17;;;;;;;-133;68.5;79310;;;;
2022/04/29 21:36:49;;;;;;;11.7;17;;;;;;;-133;69.2;79330;;;;
2022/04/29 21:47:49;;;;;;;9.5;12.5;;;;;;;-133;69.8;79380;;;;
2022/04/29 21:58:49;;;;;;;9.5;12.5;;;;;;;-133;71.2;79430;;;;
2022/04/29 22:09:49;;;;;;;9.5;12.5;;;;;;;-133;75.6;79460;;;;
2022/04/29 22:19:49;;;;;;;9.4;14.9;;;;;;;-133;74.5;79480;;;;
2022/04/29 22:29:49;;;;;;;9.4;14.9;;;;;;;-133;75.4;79510;;;;
2022/04/29 22:40:49;;;;;;;9.9;14.6;;;;;;;-133;75.5;79520;;;;
2022/04/29 22:50:49;;;;;;;9.9;14.6;;;;;;;-133;76.2;79540;;;;
2022/04/29 23:01:49;;;;;;;9.9;14.6;;;;;;;-133;77.6;79570;;;;
2022/04/29 23:11:49;;;;;;;12.3;17.9;;;;;;;-133;78.6;79590;;;;
2022/04/29 23:22:49;;;;;;;12.3;17.9;;;;;;;-133;82.8;79600;;;;
2022/04/29 23:32:49;;;;;;;12.3;17.9;;;;;;;-133;82.2;79620;;;;
2022/04/29 23:42:49;;;;;;;18.7;23.8;;;;;;;-133;82.1;79640;;;;
2022/04/29 23:52:49;;;;;;;18.7;23.8;;;;;;;-133;84;79650;;;;
